createdAt,value
2023-01-21T00:03:06.149Z,10.00
2023-01-21T00:06:15.301Z,9.03
2023-01-21T00:09:23.386Z,8.73
2023-01-21T00:12:32.850Z,9.63
2023-01-21T00:15:41.028Z,9.93
2023-01-21T00:18:49.641Z,9.93
2023-01-21T00:21:57.916Z,10.10
2023-01-21T00:25:07.296Z,8.70
2023-01-21T00:28:17.215Z,10.00
2023-01-21T00:31:27.843Z,9.03
2023-01-21T00:34:36.218Z,9.70
2023-01-21T00:37:44.394Z,8.17
2023-01-21T00:40:52.623Z,9.27
2023-01-21T00:44:02.053Z,9.97
2023-01-21T00:47:10.294Z,10.20
2023-01-21T00:50:18.987Z,10.47
2023-01-21T00:53:27.841Z,9.53
2023-01-21T00:56:35.968Z,9.43
2023-01-21T00:59:45.643Z,8.67
2023-01-21T01:02:53.867Z,9.00
2023-01-21T01:06:07.997Z,10.70
2023-01-21T01:09:16.108Z,10.03
2023-01-21T01:12:24.201Z,9.23
2023-01-21T01:15:33.637Z,9.57
2023-01-21T01:18:42.006Z,10.30
2023-01-21T01:21:50.345Z,9.57
2023-01-21T01:24:58.416Z,9.00
2023-01-21T01:28:07.022Z,9.40
2023-01-21T01:31:19.562Z,8.77
2023-01-21T01:34:27.686Z,10.33
2023-01-21T01:37:35.740Z,9.67
2023-01-21T01:40:45.360Z,10.00
2023-01-21T01:43:59.065Z,8.87
2023-01-21T01:47:08.673Z,8.83
2023-01-21T01:50:20.933Z,9.23
2023-01-21T01:53:31.929Z,10.80
2023-01-21T01:56:46.031Z,10.67
2023-01-21T01:59:54.122Z,11.10
2023-01-21T02:03:22.310Z,11.30
2023-01-21T02:06:30.439Z,10.53
2023-01-21T02:09:38.715Z,10.37
2023-01-21T02:12:47.349Z,10.87
2023-01-21T02:16:47.353Z,10.93
2023-01-21T02:20:36.801Z,9.63
2023-01-21T02:24:30.143Z,11.97
2023-01-21T02:27:49.681Z,9.50
2023-01-21T02:31:25.618Z,9.83
2023-01-21T02:34:44.699Z,10.73
2023-01-21T02:38:02.444Z,11.30
2023-01-21T02:41:24.309Z,10.53
2023-01-21T02:44:40.566Z,10.97
2023-01-21T02:48:05.941Z,11.67
2023-01-21T02:51:15.471Z,10.67
2023-01-21T02:54:54.909Z,10.37
2023-01-21T02:58:09.084Z,12.70
2023-01-21T03:01:32.499Z,11.17
2023-01-21T03:04:58.901Z,10.83
2023-01-21T03:08:18.746Z,10.87
2023-01-21T03:11:27.548Z,11.07
2023-01-21T03:15:05.694Z,9.50
2023-01-21T03:18:24.874Z,11.53
2023-01-21T03:21:36.441Z,11.87
2023-01-21T03:24:52.469Z,11.83
2023-01-21T03:28:07.310Z,12.23
2023-01-21T03:31:21.969Z,12.20
2023-01-21T03:34:36.953Z,11.23
2023-01-21T03:37:53.865Z,12.17
2023-01-21T03:41:13.295Z,11.87
2023-01-21T03:44:21.911Z,10.90
2023-01-21T03:47:35.833Z,11.43
2023-01-21T03:50:53.392Z,12.17
2023-01-21T03:54:02.207Z,12.00
2023-01-21T03:57:11.622Z,10.67
2023-01-21T04:00:20.615Z,11.43
2023-01-21T04:03:28.781Z,11.83
2023-01-21T04:06:37.852Z,12.93
2023-01-21T04:09:46.389Z,10.30
2023-01-21T04:12:55.891Z,11.30
2023-01-21T04:16:04.361Z,11.87
2023-01-21T04:22:33.411Z,13.07
2023-01-21T04:25:41.515Z,12.87
2023-01-21T04:28:49.606Z,11.70
2023-01-21T04:31:57.784Z,11.17
2023-01-21T04:35:07.087Z,11.00
2023-01-21T04:38:16.758Z,11.03
2023-01-21T04:41:25.625Z,12.00
2023-01-21T04:44:33.827Z,11.03
2023-01-21T04:47:43.469Z,10.10
2023-01-21T04:50:51.785Z,10.17
2023-01-21T04:54:01.284Z,10.77
2023-01-21T04:57:10.780Z,10.33
2023-01-21T05:00:19.991Z,9.83
2023-01-21T05:03:28.681Z,9.50
2023-01-21T05:06:36.969Z,9.63
2023-01-21T05:09:46.485Z,9.57
2023-01-21T05:12:54.631Z,9.57
2023-01-21T05:16:05.763Z,8.80
2023-01-21T05:19:14.003Z,9.43
2023-01-21T05:22:22.334Z,9.63
2023-01-21T05:25:32.139Z,9.40
2023-01-21T05:28:40.280Z,9.37
2023-01-21T05:31:48.455Z,10.73
2023-01-21T05:34:56.600Z,8.77
2023-01-21T05:38:04.777Z,9.60
2023-01-21T05:41:14.279Z,10.53
2023-01-21T05:44:22.644Z,10.73
2023-01-21T05:47:30.768Z,9.93
2023-01-21T05:50:39.689Z,9.93
2023-01-21T05:53:47.826Z,11.40
2023-01-21T05:56:57.364Z,11.23
2023-01-21T06:00:07.521Z,11.43
2023-01-21T06:03:16.324Z,10.43
2023-01-21T06:06:24.482Z,10.40
2023-01-21T06:09:32.658Z,12.00
2023-01-21T06:12:42.127Z,11.40
2023-01-21T06:15:50.363Z,11.77
2023-01-21T06:18:58.715Z,11.13
2023-01-21T06:22:06.889Z,11.13
2023-01-21T06:25:15.292Z,9.83
2023-01-21T06:28:24.796Z,10.67
2023-01-21T06:31:33.083Z,11.10
2023-01-21T06:34:41.232Z,12.20
2023-01-21T06:37:49.439Z,9.43
2023-01-21T06:40:57.664Z,11.20
2023-01-21T06:44:08.212Z,9.97
2023-01-21T06:47:16.642Z,9.37
2023-01-21T06:50:24.927Z,10.50
2023-01-21T06:53:33.086Z,10.10
2023-01-21T06:56:43.712Z,9.77
2023-01-21T06:59:53.177Z,10.57
2023-01-21T07:03:01.897Z,10.37
2023-01-21T07:06:10.362Z,9.93
2023-01-21T07:09:18.780Z,10.60
2023-01-21T07:12:26.995Z,9.40
2023-01-21T07:15:36.673Z,9.43
2023-01-21T07:18:44.941Z,8.80
2023-01-21T07:21:54.268Z,9.67
2023-01-21T07:25:02.732Z,10.10
2023-01-21T07:28:11.009Z,9.47
2023-01-21T07:31:20.788Z,10.40
2023-01-21T07:34:29.255Z,9.90
2023-01-21T07:37:37.426Z,10.13
2023-01-21T07:40:48.457Z,8.13
2023-01-21T07:43:56.662Z,11.00
2023-01-21T07:47:06.474Z,9.73
2023-01-21T07:50:14.871Z,9.57
2023-01-21T07:53:23.109Z,8.73
2023-01-21T07:56:31.382Z,11.13
2023-01-21T07:59:39.543Z,5.73
2023-01-21T08:02:53.969Z,4.20
2023-01-21T08:06:02.409Z,8.60
2023-01-21T08:09:11.288Z,9.47
2023-01-21T08:12:19.630Z,9.40
2023-01-21T08:15:27.792Z,9.23
2023-01-21T08:18:37.286Z,8.17
2023-01-21T08:21:45.704Z,8.13
2023-01-21T08:24:53.814Z,9.00
2023-01-21T08:28:02.277Z,6.27
2023-01-21T08:31:14.330Z,8.30
2023-01-21T08:34:24.004Z,7.30
2023-01-21T08:37:32.104Z,9.67
2023-01-21T08:40:40.257Z,7.60
2023-01-21T08:43:48.574Z,9.53
2023-01-21T08:46:57.125Z,8.13
2023-01-21T08:50:09.521Z,9.87
2023-01-21T08:53:17.862Z,8.30
2023-01-21T08:56:26.182Z,6.53
2023-01-21T08:59:34.959Z,8.20
2023-01-21T09:02:43.254Z,7.87
2023-01-21T09:05:53.002Z,6.40
2023-01-21T09:09:01.637Z,5.13
2023-01-21T09:12:10.224Z,7.07
2023-01-21T09:15:18.640Z,7.07
2023-01-21T09:18:27.487Z,6.90
2023-01-21T09:21:37.870Z,10.03
2023-01-21T09:24:46.041Z,7.13
2023-01-21T09:27:54.175Z,8.40
2023-01-21T09:31:05.850Z,6.47
2023-01-21T09:34:14.006Z,9.17
2023-01-21T09:37:23.417Z,9.47
2023-01-21T09:40:32.155Z,8.77
2023-01-21T09:43:46.186Z,8.00
2023-01-21T09:47:02.063Z,8.57
2023-01-21T09:50:16.648Z,8.97
2023-01-21T09:53:37.994Z,9.13
2023-01-21T09:57:06.451Z,9.93
2023-01-21T10:00:34.314Z,9.17
2023-01-21T10:03:51.377Z,9.60
2023-01-21T10:07:05.087Z,8.33
2023-01-21T10:10:22.873Z,8.17
2023-01-21T10:13:50.813Z,9.53
2023-01-21T10:17:10.352Z,8.73
2023-01-21T10:20:25.568Z,9.43
2023-01-21T10:23:42.683Z,7.17
2023-01-21T10:26:55.451Z,11.37
2023-01-21T10:30:14.653Z,12.73
2023-01-21T10:33:25.609Z,11.20
2023-01-21T10:37:03.891Z,8.77
2023-01-21T10:40:42.751Z,11.90
2023-01-21T10:44:06.893Z,13.77
2023-01-21T10:47:29.698Z,11.17
2023-01-21T10:50:54.468Z,10.63
2023-01-21T10:54:15.062Z,10.47
2023-01-21T10:57:54.448Z,8.90
2023-01-21T11:01:09.122Z,8.47
2023-01-21T11:04:21.425Z,7.33
2023-01-21T11:07:42.327Z,9.20
2023-01-21T11:10:55.274Z,9.07
2023-01-21T11:14:03.942Z,8.77
2023-01-21T11:17:13.678Z,8.90
2023-01-21T11:20:29.348Z,8.87
2023-01-21T11:23:40.128Z,9.03
2023-01-21T11:26:54.578Z,9.80
2023-01-21T11:30:10.092Z,8.73
2023-01-21T11:33:28.720Z,9.93
2023-01-21T11:36:36.873Z,11.23
2023-01-21T11:39:56.226Z,9.93
2023-01-21T11:43:05.717Z,8.93
2023-01-21T11:46:36.601Z,10.00
2023-01-21T11:49:49.511Z,9.90
2023-01-21T11:53:14.233Z,10.53
2023-01-21T11:56:22.513Z,9.73
2023-01-21T11:59:35.589Z,9.53
2023-01-21T12:02:48.757Z,10.23
2023-01-21T12:06:02.620Z,8.70
2023-01-21T12:09:20.604Z,6.47
2023-01-21T12:12:46.739Z,7.73
2023-01-21T12:16:25.011Z,8.67
2023-01-21T12:19:52.523Z,8.80
2023-01-21T12:23:30.341Z,7.67
2023-01-21T12:26:45.696Z,8.30
2023-01-21T12:30:14.364Z,8.83
2023-01-21T12:33:45.880Z,8.53
2023-01-21T12:37:04.836Z,10.03
2023-01-21T12:40:21.062Z,8.43
2023-01-21T12:43:36.274Z,8.63
2023-01-21T12:46:49.083Z,8.23
2023-01-21T12:50:25.765Z,8.83
2023-01-21T12:53:44.534Z,8.20
2023-01-21T12:57:04.265Z,8.70
2023-01-21T13:00:21.646Z,8.23
2023-01-21T13:03:44.154Z,7.87
2023-01-21T13:07:03.554Z,7.70
2023-01-21T13:10:20.973Z,7.30
2023-01-21T13:13:37.015Z,7.53
2023-01-21T13:16:53.997Z,7.33
2023-01-21T13:20:13.266Z,7.40
2023-01-21T13:23:33.012Z,8.57
2023-01-21T13:26:51.929Z,6.10
2023-01-21T13:30:14.998Z,7.43
2023-01-21T13:33:41.765Z,6.87
2023-01-21T13:37:09.620Z,6.10
2023-01-21T13:40:41.161Z,6.57
2023-01-21T13:44:15.716Z,6.03
2023-01-21T13:47:55.701Z,6.83
2023-01-21T13:51:25.988Z,6.27
2023-01-21T13:54:59.661Z,17.07
2023-01-21T13:58:14.534Z,7.63
2023-01-21T14:01:32.041Z,6.93
2023-01-21T14:04:50.197Z,5.50
2023-01-21T14:08:07.843Z,7.37
2023-01-21T14:11:24.690Z,6.97
2023-01-21T14:15:12.057Z,6.73
2023-01-21T14:18:47.182Z,6.00
2023-01-21T14:22:29.276Z,5.53
2023-01-21T14:26:03.856Z,6.47
2023-01-21T14:29:24.571Z,6.30
2023-01-21T14:32:41.742Z,6.53
2023-01-21T14:36:04.189Z,6.60
2023-01-21T14:39:36.172Z,5.90
2023-01-21T14:42:49.072Z,6.73
2023-01-21T14:45:59.780Z,5.93
2023-01-21T14:49:12.579Z,7.67
2023-01-21T14:52:28.847Z,6.70
2023-01-21T14:55:39.826Z,6.43
2023-01-21T14:58:51.194Z,5.13
2023-01-21T15:02:02.223Z,5.67
2023-01-21T15:05:25.610Z,4.80
2023-01-21T15:08:46.149Z,5.90
2023-01-21T15:12:01.243Z,5.97
2023-01-21T15:15:31.012Z,5.00
2023-01-21T15:18:44.034Z,6.07
2023-01-21T15:22:24.385Z,5.17
2023-01-21T15:25:34.337Z,6.27
2023-01-21T15:28:45.992Z,6.03
2023-01-21T15:31:54.639Z,5.50
2023-01-21T15:35:16.087Z,5.53
2023-01-21T15:38:27.099Z,6.13
2023-01-21T15:41:59.888Z,6.83
2023-01-21T15:45:27.416Z,7.13
2023-01-21T15:49:37.590Z,7.80
2023-01-21T15:53:14.902Z,6.37
2023-01-21T15:56:55.809Z,7.40
2023-01-21T16:00:38.970Z,6.13
2023-01-21T16:04:13.512Z,5.97
2023-01-21T16:07:39.505Z,7.57
2023-01-21T16:11:03.445Z,6.43
2023-01-21T16:14:33.721Z,5.87
2023-01-21T16:18:04.194Z,6.43
2023-01-21T16:21:13.594Z,6.20
2023-01-21T16:24:29.405Z,6.33
2023-01-21T16:27:37.585Z,6.20
2023-01-21T16:30:55.824Z,6.43
2023-01-21T16:34:05.533Z,6.43
2023-01-21T16:37:17.761Z,5.73
2023-01-21T16:40:30.891Z,6.17
2023-01-21T16:43:46.424Z,6.03
2023-01-21T16:46:54.811Z,5.20
2023-01-21T16:50:06.387Z,5.60
2023-01-21T16:53:19.066Z,5.20
2023-01-21T16:56:30.405Z,4.47
2023-01-21T16:59:41.899Z,5.50
2023-01-21T17:02:50.539Z,5.00
2023-01-21T17:06:04.306Z,5.27
2023-01-21T17:09:26.927Z,5.03
2023-01-21T17:12:36.530Z,5.43
2023-01-21T17:15:57.345Z,5.10
2023-01-21T17:19:18.308Z,5.77
2023-01-21T17:22:34.401Z,4.80
2023-01-21T17:25:43.779Z,4.73
2023-01-21T17:28:57.663Z,5.50
2023-01-21T17:32:08.394Z,5.13
2023-01-21T17:35:23.393Z,4.80
2023-01-21T17:38:39.575Z,5.73
2023-01-21T17:41:47.917Z,4.67
2023-01-21T17:44:59.953Z,5.07
2023-01-21T17:48:19.687Z,4.37
2023-01-21T17:51:30.725Z,5.57
2023-01-21T17:54:40.540Z,5.07
2023-01-21T17:57:48.890Z,4.40
2023-01-21T18:00:57.197Z,4.70
2023-01-21T18:04:05.698Z,5.27
2023-01-21T18:07:24.033Z,5.60
2023-01-21T18:10:33.865Z,4.73
2023-01-21T18:13:42.117Z,3.90
2023-01-21T18:16:52.864Z,5.30
2023-01-21T18:20:01.040Z,5.87
2023-01-21T18:23:12.565Z,6.43
2023-01-21T18:26:34.096Z,6.50
2023-01-21T18:29:42.812Z,5.30
2023-01-21T18:32:51.296Z,5.87
2023-01-21T18:35:59.809Z,6.87
2023-01-21T18:39:13.798Z,6.10
2023-01-21T18:42:23.605Z,5.57
2023-01-21T18:45:31.974Z,6.00
2023-01-21T18:48:40.239Z,5.30
2023-01-21T18:51:48.931Z,5.47
2023-01-21T18:54:58.177Z,5.40
2023-01-21T18:58:14.999Z,6.37
2023-01-21T19:01:24.801Z,5.60
2023-01-21T19:04:33.166Z,4.47
2023-01-21T19:07:42.237Z,7.37
2023-01-21T19:10:50.597Z,5.23
2023-01-21T19:14:00.312Z,6.63
2023-01-21T19:17:13.703Z,6.30
2023-01-21T19:20:24.562Z,5.23
2023-01-21T19:23:32.880Z,5.93
2023-01-21T19:26:41.259Z,5.30
2023-01-21T19:29:51.279Z,6.10
2023-01-21T19:33:01.913Z,6.07
2023-01-21T19:36:16.419Z,6.07
2023-01-21T19:39:25.343Z,6.23
2023-01-21T19:42:34.194Z,6.57
2023-01-21T19:45:45.196Z,6.57
2023-01-21T19:48:53.748Z,6.70
2023-01-21T19:52:02.631Z,7.60
2023-01-21T19:55:16.350Z,7.63
2023-01-21T19:58:29.205Z,5.73
2023-01-21T20:01:39.945Z,6.83
2023-01-21T20:04:48.442Z,7.37
2023-01-21T20:07:57.652Z,6.00
2023-01-21T20:11:06.406Z,7.43
2023-01-21T20:14:14.550Z,6.67
2023-01-21T20:17:24.659Z,6.33
2023-01-21T20:20:34.689Z,5.93
2023-01-21T20:23:43.410Z,5.43
2023-01-21T20:26:51.959Z,6.57
2023-01-21T20:30:26.562Z,6.30
2023-01-21T20:33:29.811Z,6.87
2023-01-21T20:36:39.572Z,6.70
2023-01-21T20:39:47.939Z,6.93
2023-01-21T20:42:57.775Z,5.80
2023-01-21T20:46:13.429Z,6.37
2023-01-21T20:49:23.072Z,6.37
2023-01-21T20:52:31.435Z,7.23
2023-01-21T20:55:40.313Z,6.97
2023-01-21T20:58:49.526Z,6.30
2023-01-21T21:01:58.723Z,6.83
2023-01-21T21:05:10.117Z,6.67
2023-01-21T21:08:22.418Z,6.57
2023-01-21T21:11:30.756Z,7.13
2023-01-21T21:14:38.885Z,6.90
2023-01-21T21:17:48.153Z,8.03
2023-01-21T21:20:57.678Z,7.37
2023-01-21T21:24:07.699Z,7.87
2023-01-21T21:27:17.005Z,7.83
2023-01-21T21:30:30.055Z,7.93
2023-01-21T21:33:38.902Z,7.27
2023-01-21T21:36:48.652Z,7.67
2023-01-21T21:39:56.876Z,7.13
2023-01-21T21:43:23.396Z,6.87
2023-01-21T21:46:49.081Z,6.73
2023-01-21T21:49:57.412Z,7.23
2023-01-21T21:53:08.276Z,6.67
2023-01-21T21:56:18.879Z,6.23
2023-01-21T21:59:27.249Z,8.00
2023-01-21T22:02:35.789Z,7.67
2023-01-21T22:05:57.805Z,7.63
2023-01-21T22:09:08.691Z,9.20
2023-01-21T22:12:17.062Z,8.27
2023-01-21T22:15:25.313Z,8.13
2023-01-21T22:18:36.152Z,8.40
2023-01-21T22:21:44.319Z,8.17
2023-01-21T22:24:54.872Z,7.97
2023-01-21T22:28:03.157Z,8.63
2023-01-21T22:31:15.169Z,8.40
2023-01-21T22:34:23.506Z,9.97
2023-01-21T22:37:31.672Z,8.87
2023-01-21T22:40:41.216Z,8.87
2023-01-21T22:43:50.744Z,9.83
2023-01-21T22:46:58.932Z,8.87
2023-01-21T22:50:08.543Z,9.13
2023-01-21T22:53:16.642Z,8.53
2023-01-21T22:56:49.630Z,9.33
2023-01-21T22:59:55.695Z,9.73
2023-01-21T23:03:03.935Z,8.83
2023-01-21T23:06:12.426Z,8.97
2023-01-21T23:09:20.763Z,9.63
2023-01-21T23:12:30.503Z,8.90
2023-01-21T23:15:43.995Z,8.43
2023-01-21T23:18:52.343Z,9.10
2023-01-21T23:22:00.748Z,9.40
2023-01-21T23:25:10.263Z,9.37
2023-01-21T23:28:20.127Z,9.27
2023-01-21T23:31:28.490Z,8.77
2023-01-21T23:34:36.929Z,9.27
2023-01-21T23:37:44.979Z,9.40
2023-01-21T23:40:53.142Z,8.77
2023-01-21T23:44:03.264Z,8.63
2023-01-21T23:47:12.002Z,7.33
2023-01-21T23:50:20.428Z,8.00
2023-01-21T23:53:28.998Z,7.93
2023-01-21T23:56:37.964Z,9.13
2023-01-21T23:59:47.866Z,8.07
